createdAt,value
2022-09-22T00:01:31.575Z,9.87
2022-09-22T00:04:03.876Z,9.74
2022-09-22T00:06:39.107Z,10.15
2022-09-22T00:09:11.110Z,10.03
2022-09-22T00:11:42.750Z,9.81
2022-09-22T00:14:20.892Z,9.84
2022-09-22T00:16:53.686Z,9.87
2022-09-22T00:19:23.962Z,10.28
2022-09-22T00:21:52.376Z,10.31
2022-09-22T00:24:24.686Z,10.13
2022-09-22T00:26:57.506Z,9.98
2022-09-22T00:29:26.629Z,10.64
2022-09-22T00:31:55.195Z,10.59
2022-09-22T00:34:25.130Z,10.38
2022-09-22T00:36:53.386Z,10.56
2022-09-22T00:39:21.970Z,10.86
2022-09-22T00:41:52.134Z,10.44
2022-09-22T00:44:30.022Z,10.10
2022-09-22T00:47:06.876Z,9.90
2022-09-22T00:49:40.432Z,10.45
2022-09-22T00:52:08.884Z,10.60
2022-09-22T00:54:37.098Z,10.18
2022-09-22T00:57:07.290Z,10.53
2022-09-22T00:59:35.644Z,10.67
2022-09-22T01:02:03.510Z,10.21
2022-09-22T01:04:31.319Z,10.44
2022-09-22T01:06:59.782Z,10.44
2022-09-22T01:09:28.515Z,10.60
2022-09-22T01:11:56.188Z,10.71
2022-09-22T01:14:41.423Z,9.84
2022-09-22T01:17:32.147Z,9.99
2022-09-22T01:20:25.918Z,9.22
2022-09-22T01:23:17.405Z,10.14
2022-09-22T01:26:14.502Z,10.30
2022-09-22T01:28:54.194Z,9.89
2022-09-22T01:31:38.793Z,10.42
2022-09-22T01:34:15.983Z,9.40
2022-09-22T01:37:09.583Z,9.34
2022-09-22T01:40:02.728Z,10.02
2022-09-22T01:42:37.327Z,10.11
2022-09-22T01:45:26.337Z,10.14
2022-09-22T01:47:57.898Z,9.80
2022-09-22T01:50:29.066Z,9.78
2022-09-22T01:53:00.998Z,10.03
2022-09-22T01:55:32.520Z,10.15
2022-09-22T01:58:03.986Z,9.79
2022-09-22T02:00:32.860Z,10.03
2022-09-22T02:03:14.889Z,9.16
2022-09-22T02:05:47.006Z,9.36
2022-09-22T02:08:36.787Z,9.63
2022-09-22T02:11:12.241Z,9.58
2022-09-22T02:13:40.961Z,9.58
2022-09-22T02:16:10.101Z,9.79
2022-09-22T02:18:46.845Z,9.79
2022-09-22T02:21:15.759Z,9.72
2022-09-22T02:23:45.053Z,10.31
2022-09-22T02:26:13.871Z,10.17
2022-09-22T02:28:43.526Z,9.62
2022-09-22T02:31:20.125Z,9.68
2022-09-22T02:33:48.584Z,9.51
2022-09-22T02:36:26.043Z,9.50
2022-09-22T02:39:10.047Z,9.67
2022-09-22T02:42:04.722Z,9.29
2022-09-22T02:44:54.878Z,10.07
2022-09-22T02:47:32.661Z,10.20
2022-09-22T02:50:01.080Z,9.86
2022-09-22T02:52:29.907Z,10.36
2022-09-22T02:54:57.502Z,10.36
2022-09-22T02:57:25.427Z,10.20
2022-09-22T02:59:53.097Z,9.64
2022-09-22T03:02:20.661Z,9.86
2022-09-22T03:04:49.197Z,10.25
2022-09-22T03:07:16.855Z,10.00
2022-09-22T03:09:44.495Z,9.93
2022-09-22T03:12:12.422Z,9.46
2022-09-22T03:14:40.188Z,9.81
2022-09-22T03:17:07.866Z,10.17
2022-09-22T03:19:36.001Z,9.55
2022-09-22T03:22:03.707Z,9.48
2022-09-22T03:24:31.788Z,9.59
2022-09-22T03:27:00.012Z,9.55
2022-09-22T03:29:27.792Z,8.95
2022-09-22T03:31:55.436Z,9.11
2022-09-22T03:34:23.280Z,9.39
2022-09-22T03:36:50.991Z,9.63
2022-09-22T03:39:18.589Z,9.27
2022-09-22T03:41:46.828Z,10.00
2022-09-22T03:44:14.634Z,9.95
2022-09-22T03:46:42.301Z,9.85
2022-09-22T03:49:10.266Z,9.80
2022-09-22T03:51:37.864Z,9.90
2022-09-22T03:54:05.640Z,9.72
2022-09-22T03:56:33.750Z,9.64
2022-09-22T03:59:01.450Z,9.29
2022-09-22T04:01:30.055Z,9.36
2022-09-22T04:03:58.339Z,9.20
2022-09-22T04:06:26.037Z,9.54
2022-09-22T04:08:53.700Z,10.02
2022-09-22T04:11:21.824Z,10.23
2022-09-22T04:13:49.381Z,9.52
2022-09-22T04:16:17.563Z,9.64
2022-09-22T04:18:45.618Z,10.07
2022-09-22T04:21:13.465Z,10.12
2022-09-22T04:23:41.331Z,9.89
2022-09-22T04:26:09.314Z,9.75
2022-09-22T04:28:36.951Z,9.71
2022-09-22T04:31:04.659Z,9.55
2022-09-22T04:33:32.926Z,9.86
2022-09-22T04:36:00.645Z,9.44
2022-09-22T04:38:28.691Z,10.02
2022-09-22T04:40:57.458Z,9.58
2022-09-22T04:43:24.961Z,9.81
2022-09-22T04:45:52.559Z,9.43
2022-09-22T04:48:20.842Z,9.23
2022-09-22T04:50:48.528Z,9.92
2022-09-22T04:53:16.154Z,9.66
2022-09-22T04:55:44.087Z,9.99
2022-09-22T04:58:11.713Z,9.48
2022-09-22T05:00:39.360Z,10.05
2022-09-22T05:03:12.329Z,9.74
2022-09-22T05:05:40.086Z,9.55
2022-09-22T05:08:08.238Z,9.00
2022-09-22T05:10:36.881Z,9.61
2022-09-22T05:13:04.696Z,9.41
2022-09-22T05:15:34.742Z,9.73
2022-09-22T05:18:02.482Z,10.10
2022-09-22T05:20:32.335Z,10.55
2022-09-22T05:23:00.623Z,10.73
2022-09-22T05:25:28.152Z,10.99
2022-09-22T05:27:56.850Z,11.60
2022-09-22T05:30:26.406Z,11.70
2022-09-22T05:32:54.003Z,11.80
2022-09-22T05:35:23.662Z,12.45
2022-09-22T05:37:52.561Z,12.84
2022-09-22T05:40:24.167Z,12.39
2022-09-22T05:42:53.147Z,12.85
2022-09-22T05:45:21.724Z,13.20
2022-09-22T05:47:49.340Z,13.46
2022-09-22T05:50:20.068Z,13.65
2022-09-22T05:52:47.780Z,13.27
2022-09-22T05:55:15.723Z,13.31
2022-09-22T05:57:44.075Z,13.06
2022-09-22T06:00:13.396Z,13.42
2022-09-22T06:02:43.687Z,13.75
2022-09-22T06:05:11.497Z,13.68
2022-09-22T06:07:39.850Z,13.86
2022-09-22T06:10:10.519Z,14.13
2022-09-22T06:12:38.654Z,13.03
2022-09-22T06:15:07.209Z,13.61
2022-09-22T06:17:35.244Z,14.18
2022-09-22T06:20:03.301Z,14.00
2022-09-22T06:22:31.093Z,14.16
2022-09-22T06:24:59.380Z,14.26
2022-09-22T06:27:27.280Z,13.98
2022-09-22T06:29:55.406Z,14.25
2022-09-22T06:32:23.685Z,14.19
2022-09-22T06:34:51.373Z,13.95
2022-09-22T06:37:20.388Z,14.27
2022-09-22T06:39:48.308Z,15.08
2022-09-22T06:42:17.417Z,15.33
2022-09-22T06:44:45.552Z,15.42
2022-09-22T06:47:13.647Z,15.04
2022-09-22T06:49:42.916Z,15.70
2022-09-22T06:52:13.808Z,14.84
2022-09-22T06:54:42.904Z,15.41
2022-09-22T06:57:11.659Z,14.92
2022-09-22T06:59:40.883Z,15.71
2022-09-22T07:02:10.092Z,15.48
2022-09-22T07:04:37.819Z,15.54
2022-09-22T07:07:05.414Z,15.67
2022-09-22T07:09:33.296Z,15.26
2022-09-22T07:12:01.128Z,16.14
2022-09-22T07:14:29.776Z,16.48
2022-09-22T07:16:57.818Z,16.38
2022-09-22T07:19:25.621Z,15.48
2022-09-22T07:21:53.193Z,15.71
2022-09-22T07:24:21.401Z,16.22
2022-09-22T07:26:50.159Z,15.86
2022-09-22T07:29:17.964Z,15.76
2022-09-22T07:31:45.959Z,16.07
2022-09-22T07:34:14.325Z,16.67
2022-09-22T07:36:42.125Z,16.29
2022-09-22T07:39:12.797Z,17.09
2022-09-22T07:41:44.023Z,17.00
2022-09-22T07:44:32.264Z,17.00
2022-09-22T07:47:01.006Z,15.65
2022-09-22T07:49:29.608Z,15.51
2022-09-22T07:51:57.805Z,15.91
2022-09-22T07:54:26.648Z,16.15
2022-09-22T07:56:58.899Z,15.83
2022-09-22T07:59:27.367Z,16.79
2022-09-22T08:01:55.876Z,16.75
2022-09-22T08:04:24.515Z,17.80
2022-09-22T08:06:55.827Z,16.73
2022-09-22T08:09:25.291Z,17.28
2022-09-22T08:11:53.616Z,16.77
2022-09-22T08:14:23.183Z,17.19
2022-09-22T08:16:52.063Z,16.94
2022-09-22T08:19:20.259Z,17.13
2022-09-22T08:21:50.017Z,17.41
2022-09-22T08:24:22.959Z,17.80
2022-09-22T08:26:53.159Z,17.60
2022-09-22T08:29:22.263Z,17.59
2022-09-22T08:31:51.582Z,17.63
2022-09-22T08:34:20.265Z,16.89
2022-09-22T08:36:48.974Z,17.44
2022-09-22T08:39:18.054Z,18.80
2022-09-22T08:41:57.001Z,17.97
2022-09-22T08:44:32.944Z,19.38
2022-09-22T08:47:01.652Z,18.90
2022-09-22T08:49:52.214Z,19.70
2022-09-22T08:52:35.226Z,19.61
2022-09-22T08:55:03.556Z,18.96
2022-09-22T08:58:02.157Z,18.94
2022-09-22T09:00:39.172Z,19.96
2022-09-22T09:03:25.046Z,19.72
2022-09-22T09:06:01.551Z,20.11
2022-09-22T09:08:33.370Z,20.64
2022-09-22T09:11:26.488Z,20.93
2022-09-22T09:14:13.900Z,19.60
2022-09-22T09:16:46.914Z,18.95
2022-09-22T09:19:37.974Z,20.50
2022-09-22T09:22:25.395Z,20.38
2022-09-22T09:28:01.019Z,20.92
2022-09-22T09:30:34.353Z,21.30
2022-09-22T09:33:04.773Z,20.90
2022-09-22T09:35:53.827Z,21.14
2022-09-22T09:38:31.533Z,22.10
2022-09-22T09:41:08.315Z,21.35
2022-09-22T09:43:37.231Z,21.09
2022-09-22T09:46:11.881Z,20.90
2022-09-22T09:49:16.894Z,21.20
2022-09-22T09:51:50.020Z,20.94
2022-09-22T09:54:19.076Z,20.44
2022-09-22T09:57:05.350Z,20.60
2022-09-22T09:59:53.074Z,21.06
2022-09-22T10:02:32.703Z,21.84
2022-09-22T10:05:03.436Z,22.31
2022-09-22T10:07:41.038Z,20.82
2022-09-22T10:10:36.920Z,21.48
2022-09-22T10:13:18.346Z,22.08
2022-09-22T10:16:07.020Z,22.04
2022-09-22T10:18:44.049Z,21.66
2022-09-22T10:21:19.698Z,21.44
2022-09-22T10:24:09.744Z,19.82
2022-09-22T10:26:55.276Z,19.41
2022-09-22T10:29:24.382Z,20.47
2022-09-22T10:32:15.413Z,21.08
2022-09-22T10:37:21.324Z,22.00
2022-09-22T10:39:54.068Z,22.27
2022-09-22T10:42:33.497Z,22.74
2022-09-22T10:45:05.270Z,22.32
2022-09-22T10:47:43.508Z,22.42
2022-09-22T10:50:41.468Z,23.04
2022-09-22T10:53:25.748Z,22.61
2022-09-22T10:56:15.013Z,22.84
2022-09-22T10:58:43.003Z,23.03
2022-09-22T11:01:26.997Z,21.83
2022-09-22T11:04:14.407Z,22.38
2022-09-22T11:07:13.057Z,22.47
2022-09-22T11:10:06.342Z,23.65
2022-09-22T11:12:53.691Z,21.77
2022-09-22T11:15:40.092Z,23.34
2022-09-22T11:18:39.543Z,22.80
2022-09-22T11:21:13.866Z,23.12
2022-09-22T11:23:55.071Z,22.79
2022-09-22T11:27:01.462Z,23.68
2022-09-22T11:29:45.446Z,22.90
2022-09-22T11:32:36.534Z,23.41
2022-09-22T11:35:32.182Z,23.78
2022-09-22T11:38:28.600Z,22.86
2022-09-22T11:41:10.565Z,22.56
2022-09-22T11:43:41.840Z,21.78
2022-09-22T11:46:13.235Z,22.05
2022-09-22T11:48:47.280Z,22.31
2022-09-22T11:51:33.656Z,21.84
2022-09-22T11:54:26.794Z,22.26
2022-09-22T11:57:02.253Z,22.72
2022-09-22T11:59:52.002Z,22.41
2022-09-22T12:02:31.794Z,23.14
2022-09-22T12:05:03.454Z,22.83
2022-09-22T12:07:45.043Z,22.78
2022-09-22T12:10:20.685Z,23.46
2022-09-22T12:12:51.070Z,22.18
2022-09-22T12:15:35.681Z,21.64
2022-09-22T12:18:10.041Z,21.01
2022-09-22T12:20:41.266Z,20.50
2022-09-22T12:23:09.160Z,20.51
2022-09-22T12:25:49.393Z,20.16
2022-09-22T12:28:20.923Z,20.98
2022-09-22T12:31:07.394Z,21.20
2022-09-22T12:33:36.314Z,21.54
2022-09-22T12:36:04.773Z,20.99
2022-09-22T12:38:33.032Z,20.71
2022-09-22T12:41:04.238Z,20.77
2022-09-22T12:43:33.627Z,20.50
2022-09-22T12:46:06.248Z,20.57
2022-09-22T12:48:36.610Z,19.52
2022-09-22T12:51:16.832Z,20.13
2022-09-22T12:53:44.668Z,19.96
2022-09-22T12:56:42.854Z,19.51
2022-09-22T12:59:38.559Z,19.49
2022-09-22T13:02:18.722Z,19.35
2022-09-22T13:04:49.446Z,19.09
2022-09-22T13:07:44.117Z,19.70
2022-09-22T13:10:27.416Z,18.91
2022-09-22T13:13:01.144Z,19.03
2022-09-22T13:15:29.567Z,19.04
2022-09-22T13:17:58.265Z,18.74
2022-09-22T13:20:32.435Z,19.57
2022-09-22T13:23:11.738Z,20.33
2022-09-22T13:25:40.365Z,19.11
2022-09-22T13:28:08.279Z,18.43
2022-09-22T13:30:37.802Z,18.22
2022-09-22T13:33:06.208Z,19.11
2022-09-22T13:35:39.351Z,19.55
2022-09-22T13:38:07.454Z,19.46
2022-09-22T13:40:35.728Z,19.62
2022-09-22T13:43:07.733Z,19.31
2022-09-22T13:45:36.384Z,19.70
2022-09-22T13:48:10.453Z,19.14
2022-09-22T13:50:50.151Z,19.72
2022-09-22T13:53:19.547Z,19.81
2022-09-22T13:55:51.921Z,19.73
2022-09-22T13:58:24.562Z,19.76
2022-09-22T14:01:13.164Z,20.03
2022-09-22T14:03:42.323Z,18.99
2022-09-22T14:06:16.492Z,18.79
2022-09-22T14:08:46.504Z,19.17
2022-09-22T14:11:19.592Z,19.45
2022-09-22T14:13:54.410Z,18.75
2022-09-22T14:16:45.928Z,19.51
2022-09-22T14:19:17.921Z,19.86
2022-09-22T14:21:52.890Z,18.83
2022-09-22T14:24:20.999Z,18.43
2022-09-22T14:26:54.053Z,18.17
2022-09-22T14:29:27.297Z,17.75
2022-09-22T14:32:35.490Z,17.78
2022-09-22T14:35:07.617Z,18.21
2022-09-22T14:37:41.368Z,18.22
2022-09-22T14:40:22.226Z,18.16
2022-09-22T14:43:00.877Z,18.90
2022-09-22T14:45:32.140Z,18.18
2022-09-22T14:48:33.049Z,18.33
2022-09-22T14:51:02.324Z,18.79
2022-09-22T14:53:41.387Z,18.83
2022-09-22T14:56:18.423Z,18.89
2022-09-22T14:58:51.215Z,18.42
2022-09-22T15:01:46.126Z,18.98
2022-09-22T15:04:13.701Z,18.14
2022-09-22T15:06:43.108Z,18.48
2022-09-22T15:09:37.933Z,18.72
2022-09-22T15:12:06.653Z,18.60
2022-09-22T15:14:40.852Z,18.80
2022-09-22T15:17:53.728Z,17.92
2022-09-22T15:20:32.824Z,17.66
2022-09-22T15:23:02.101Z,16.75
2022-09-22T15:25:30.860Z,17.02
2022-09-22T15:27:59.379Z,17.28
2022-09-22T15:30:32.286Z,16.87
2022-09-22T15:32:59.867Z,16.87
2022-09-22T15:35:31.686Z,16.75
2022-09-22T15:38:01.190Z,17.22
2022-09-22T15:40:30.029Z,17.28
2022-09-22T15:43:12.166Z,16.42
2022-09-22T15:45:48.111Z,17.04
2022-09-22T15:48:25.746Z,16.09
2022-09-22T15:50:55.558Z,16.53
2022-09-22T15:53:23.989Z,17.24
2022-09-22T15:55:53.202Z,17.22
2022-09-22T15:58:23.386Z,17.12
2022-09-22T16:00:52.693Z,16.90
2022-09-22T16:03:23.917Z,16.71
2022-09-22T16:05:56.856Z,17.17
2022-09-22T16:08:44.061Z,16.62
2022-09-22T16:11:16.186Z,17.00
2022-09-22T16:13:44.690Z,16.45
2022-09-22T16:16:12.829Z,15.94
2022-09-22T16:18:42.185Z,15.74
2022-09-22T16:21:23.743Z,15.56
2022-09-22T16:23:53.683Z,15.33
2022-09-22T16:26:22.715Z,14.86
2022-09-22T16:28:51.464Z,15.02
2022-09-22T16:31:20.178Z,14.14
2022-09-22T16:33:54.163Z,14.69
2022-09-22T16:36:23.739Z,14.44
2022-09-22T16:38:52.313Z,13.65
2022-09-22T16:41:29.894Z,13.84
2022-09-22T16:43:58.394Z,14.17
2022-09-22T16:46:27.038Z,14.26
2022-09-22T16:49:10.052Z,13.92
2022-09-22T16:51:41.106Z,13.98
2022-09-22T16:54:13.304Z,13.79
2022-09-22T16:56:49.838Z,13.43
2022-09-22T16:59:22.624Z,13.52
2022-09-22T17:01:52.271Z,13.87
2022-09-22T17:04:20.191Z,13.96
2022-09-22T17:06:48.384Z,13.94
2022-09-22T17:09:17.262Z,13.77
2022-09-22T17:11:46.552Z,13.89
2022-09-22T17:14:25.720Z,13.97
2022-09-22T17:16:56.690Z,13.98
2022-09-22T17:19:27.043Z,14.01
2022-09-22T17:21:56.101Z,13.84
2022-09-22T17:24:25.476Z,13.59
2022-09-22T17:26:54.963Z,13.59
2022-09-22T17:29:28.408Z,13.70
2022-09-22T17:32:03.300Z,13.65
2022-09-22T17:34:33.392Z,13.53
2022-09-22T17:37:01.738Z,14.01
2022-09-22T17:39:30.474Z,13.44
2022-09-22T17:41:58.970Z,13.62
2022-09-22T17:44:29.292Z,13.45
2022-09-22T17:47:15.521Z,13.39
2022-09-22T17:50:02.760Z,13.70
2022-09-22T17:52:48.889Z,13.56
2022-09-22T17:55:22.354Z,13.32
2022-09-22T17:57:52.817Z,13.49
2022-09-22T18:00:22.248Z,14.07
2022-09-22T18:02:52.842Z,13.55
2022-09-22T18:05:25.591Z,13.26
2022-09-22T18:07:58.665Z,12.93
2022-09-22T18:10:33.501Z,13.78
2022-09-22T18:13:04.695Z,13.67
2022-09-22T18:15:36.338Z,12.95
2022-09-22T18:18:06.937Z,12.64
2022-09-22T18:20:36.037Z,13.36
2022-09-22T18:23:06.350Z,12.76
2022-09-22T18:25:35.959Z,13.07
2022-09-22T18:28:05.824Z,13.48
2022-09-22T18:30:34.873Z,14.06
2022-09-22T18:33:04.947Z,13.46
2022-09-22T18:35:33.842Z,13.75
2022-09-22T18:38:03.384Z,14.09
2022-09-22T18:40:34.600Z,13.95
2022-09-22T18:43:03.692Z,14.08
2022-09-22T18:45:39.064Z,14.17
2022-09-22T18:48:09.403Z,13.21
2022-09-22T18:50:38.295Z,13.38
2022-09-22T18:53:10.080Z,14.02
2022-09-22T18:55:38.687Z,13.86
2022-09-22T18:58:06.584Z,13.77
2022-09-22T19:00:34.475Z,13.62
2022-09-22T19:03:02.626Z,13.17
2022-09-22T19:05:30.413Z,13.45
2022-09-22T19:08:00.920Z,13.51
2022-09-22T19:10:29.043Z,13.09
2022-09-22T19:12:57.102Z,13.30
2022-09-22T19:15:25.827Z,12.99
2022-09-22T19:17:54.056Z,12.60
2022-09-22T19:20:24.140Z,12.36
2022-09-22T19:22:54.058Z,12.74
2022-09-22T19:25:22.754Z,11.68
2022-09-22T19:27:52.722Z,11.48
2022-09-22T19:30:23.959Z,11.76
2022-09-22T19:32:52.904Z,11.60
2022-09-22T19:35:21.294Z,11.57
2022-09-22T19:37:51.922Z,11.26
2022-09-22T19:40:24.808Z,11.74
2022-09-22T19:42:53.774Z,11.75
2022-09-22T19:45:24.037Z,12.11
2022-09-22T19:47:53.393Z,11.31
2022-09-22T19:50:21.452Z,11.40
2022-09-22T19:52:49.354Z,11.78
2022-09-22T19:55:20.910Z,11.99
2022-09-22T19:57:54.362Z,11.72
2022-09-22T20:00:26.416Z,11.16
2022-09-22T20:02:59.057Z,11.13
2022-09-22T20:05:30.212Z,10.69
2022-09-22T20:07:58.352Z,10.79
2022-09-22T20:10:26.044Z,10.79
2022-09-22T20:12:53.924Z,10.60
2022-09-22T20:15:22.103Z,11.07
2022-09-22T20:17:49.860Z,10.52
2022-09-22T20:20:20.750Z,10.46
2022-09-22T20:22:54.695Z,10.02
2022-09-22T20:25:27.794Z,9.22
2022-09-22T20:27:56.302Z,9.82
2022-09-22T20:30:24.472Z,9.42
2022-09-22T20:32:52.434Z,9.22
2022-09-22T20:35:22.004Z,9.83
2022-09-22T20:37:51.726Z,9.89
2022-09-22T20:40:21.409Z,10.03
2022-09-22T20:42:50.973Z,9.80
2022-09-22T20:45:21.010Z,10.39
2022-09-22T20:47:49.933Z,9.47
2022-09-22T20:50:17.604Z,9.92
2022-09-22T20:52:45.264Z,10.09
2022-09-22T20:55:13.334Z,10.21
2022-09-22T20:57:41.453Z,9.74
2022-09-22T21:00:10.043Z,9.70
2022-09-22T21:02:38.624Z,9.97
2022-09-22T21:05:06.495Z,9.86
2022-09-22T21:07:34.193Z,9.79
2022-09-22T21:10:21.057Z,10.07
2022-09-22T21:12:50.897Z,10.09
2022-09-22T21:15:20.004Z,10.49
2022-09-22T21:17:48.744Z,9.87
2022-09-22T21:20:16.305Z,9.75
2022-09-22T21:22:44.633Z,9.52
2022-09-22T21:25:12.326Z,9.73
2022-09-22T21:27:39.923Z,9.58
2022-09-22T21:30:08.371Z,9.72
2022-09-22T21:32:36.065Z,10.54
2022-09-22T21:35:03.904Z,10.43
2022-09-22T21:37:32.024Z,10.52
2022-09-22T21:39:59.964Z,10.13
2022-09-22T21:42:27.856Z,10.15
2022-09-22T21:44:55.834Z,9.97
2022-09-22T21:47:23.526Z,10.07
2022-09-22T21:49:51.346Z,10.44
2022-09-22T21:52:19.267Z,10.49
2022-09-22T21:54:47.017Z,10.34
2022-09-22T21:57:14.604Z,10.79
2022-09-22T21:59:42.544Z,10.87
2022-09-22T22:02:10.249Z,10.80
2022-09-22T22:04:38.330Z,10.98
2022-09-22T22:07:06.242Z,11.13
2022-09-22T22:09:33.964Z,10.95
2022-09-22T22:12:02.465Z,11.13
2022-09-22T22:14:33.572Z,11.08
2022-09-22T22:17:03.983Z,10.44
2022-09-22T22:19:32.128Z,10.14
2022-09-22T22:21:59.703Z,10.26
2022-09-22T22:24:43.552Z,10.29
2022-09-22T22:27:11.503Z,10.03
2022-09-22T22:29:39.673Z,10.81
2022-09-22T22:32:09.334Z,10.09
2022-09-22T22:34:37.843Z,10.06
2022-09-22T22:37:09.717Z,9.83
2022-09-22T22:39:38.124Z,9.62
2022-09-22T22:42:06.344Z,9.77
2022-09-22T22:44:35.312Z,9.34
2022-09-22T22:47:03.543Z,9.78
2022-09-22T22:49:31.476Z,10.00
2022-09-22T22:51:59.322Z,9.91
2022-09-22T22:54:27.314Z,9.71
2022-09-22T22:56:54.944Z,9.57
2022-09-22T22:59:22.526Z,9.72
2022-09-22T23:01:50.491Z,9.70
2022-09-22T23:04:18.132Z,9.49
2022-09-22T23:06:47.432Z,10.28
2022-09-22T23:09:16.668Z,9.78
2022-09-22T23:11:45.963Z,9.54
2022-09-22T23:14:16.125Z,8.48
2022-09-22T23:16:46.595Z,8.93
2022-09-22T23:19:16.984Z,9.24
2022-09-22T23:21:46.021Z,9.76
2022-09-22T23:24:16.336Z,9.14
2022-09-22T23:26:45.717Z,8.34
2022-09-22T23:29:14.135Z,8.31
2022-09-22T23:31:42.128Z,8.83
2022-09-22T23:34:09.888Z,8.84
2022-09-22T23:36:39.698Z,8.84
2022-09-22T23:39:07.558Z,8.99
2022-09-22T23:41:36.811Z,8.38
2022-09-22T23:44:08.809Z,7.60
2022-09-22T23:46:38.422Z,8.51
2022-09-22T23:49:06.802Z,8.38
2022-09-22T23:51:34.580Z,8.72
2022-09-22T23:54:02.626Z,7.97
2022-09-22T23:56:30.635Z,8.11
2022-09-22T23:58:58.329Z,7.44
